CheckWX is a tool to help pilots better visualize weather data.  It is not intended as a substitute for an official pre-flight weather briefing.

16:11:22 UTC

KMWC METAR
Lawrence J Timmerman Airport
Milwaukee, Wisconsin, USA
Current

26 mins ago

KMWC 261545Z 10005KT 10SM SKC 19/06 A3005
Observed
May-26 @ 15:45 UTC
Wind
  • 100° at 5 KTS
Visibility
10 SM
Flight Rules
VFR
Cloud Levels
  • Clear skies
Temperature
19°C / 66°F
Dewpoint
C / 43°F
Humidity
43%
Altimeter
30.05" Hg
Pressure
1017.62 hPa
Previous

1 hour ago

KMWC 261445Z 09004KT 10SM SCT055 18/07 A3006
Observed
May-26 @ 14:45 UTC
Wind
  • 090° at 4 KTS
Visibility
10 SM
Flight Rules
VFR
Cloud Levels
  • Scattered at 5,500' AGL
Temperature
18°C / 64°F
Dewpoint
C / 45°F
Humidity
49%
Altimeter
30.06" Hg
Pressure
1017.92 hPa
Previous

2 hours ago

KMWC 261345Z 08004KT 10SM SCT060 BKN095 17/08 A3006
Observed
May-26 @ 13:45 UTC
Wind
  • 080° at 4 KTS
Visibility
10 SM
Flight Rules
VFR
Cloud Levels
  • Scattered at 6,000' AGL
  • Broken at 9,500' AGL
Temperature
17°C / 63°F
Dewpoint
C / 46°F
Humidity
56%
Altimeter
30.06" Hg
Pressure
1017.92 hPa